sensor_id;sensor_type;location;lat;lon;timestamp;P1;durP1;ratioP1;P2;durP2;ratioP2
787;SDS011;16074;42.708;23.312;2022-08-19T00:05:06;10.23;;;9.23;;
787;SDS011;16074;42.708;23.312;2022-08-19T00:07:35;10.37;;;9.50;;
787;SDS011;16074;42.708;23.312;2022-08-19T00:10:05;9.57;;;8.33;;
787;SDS011;16074;42.708;23.312;2022-08-19T00:12:35;9.03;;;8.33;;
787;SDS011;16074;42.708;23.312;2022-08-19T00:15:14;9.47;;;8.77;;
787;SDS011;16074;42.708;23.312;2022-08-19T00:17:44;9.30;;;8.60;;
787;SDS011;16074;42.708;23.312;2022-08-19T00:20:15;9.40;;;8.60;;
787;SDS011;16074;42.708;23.312;2022-08-19T00:22:46;9.33;;;8.53;;
787;SDS011;16074;42.708;23.312;2022-08-19T00:25:15;9.07;;;8.43;;
787;SDS011;16074;42.708;23.312;2022-08-19T00:27:55;9.47;;;8.47;;
787;SDS011;16074;42.708;23.312;2022-08-19T00:30:24;10.40;;;9.60;;
787;SDS011;16074;42.708;23.312;2022-08-19T00:32:53;10.80;;;9.80;;
787;SDS011;16074;42.708;23.312;2022-08-19T00:35:24;9.30;;;8.60;;
787;SDS011;16074;42.708;23.312;2022-08-19T00:37:54;8.53;;;7.93;;
787;SDS011;16074;42.708;23.312;2022-08-19T00:40:23;10.47;;;9.53;;
787;SDS011;16074;42.708;23.312;2022-08-19T00:42:51;9.10;;;8.50;;
787;SDS011;16074;42.708;23.312;2022-08-19T00:45:21;9.87;;;9.07;;
787;SDS011;16074;42.708;23.312;2022-08-19T00:47:51;9.53;;;8.90;;
787;SDS011;16074;42.708;23.312;2022-08-19T00:50:20;9.60;;;8.80;;
787;SDS011;16074;42.708;23.312;2022-08-19T00:52:50;10.13;;;9.17;;
787;SDS011;16074;42.708;23.312;2022-08-19T00:55:21;9.60;;;8.90;;
787;SDS011;16074;42.708;23.312;2022-08-19T00:57:53;8.90;;;8.30;;
787;SDS011;16074;42.708;23.312;2022-08-19T01:00:25;8.73;;;8.13;;
787;SDS011;16074;42.708;23.312;2022-08-19T01:02:54;9.77;;;8.97;;
787;SDS011;16074;42.708;23.312;2022-08-19T01:05:23;9.40;;;8.70;;
787;SDS011;16074;42.708;23.312;2022-08-19T01:07:57;10.13;;;9.27;;
787;SDS011;16074;42.708;23.312;2022-08-19T01:10:29;9.80;;;8.80;;
787;SDS011;16074;42.708;23.312;2022-08-19T01:13:02;10.30;;;9.50;;
787;SDS011;16074;42.708;23.312;2022-08-19T01:15:32;9.30;;;8.70;;
787;SDS011;16074;42.708;23.312;2022-08-19T01:18:06;10.43;;;9.73;;
787;SDS011;16074;42.708;23.312;2022-08-19T01:20:38;10.23;;;8.40;;
787;SDS011;16074;42.708;23.312;2022-08-19T01:23:09;8.87;;;8.17;;
787;SDS011;16074;42.708;23.312;2022-08-19T01:25:39;9.50;;;8.60;;
787;SDS011;16074;42.708;23.312;2022-08-19T01:28:14;8.60;;;8.03;;
787;SDS011;16074;42.708;23.312;2022-08-19T01:30:59;10.80;;;9.90;;
787;SDS011;16074;42.708;23.312;2022-08-19T01:33:33;10.50;;;9.57;;
787;SDS011;16074;42.708;23.312;2022-08-19T01:36:06;9.43;;;8.63;;
787;SDS011;16074;42.708;23.312;2022-08-19T01:38:40;10.80;;;9.87;;
787;SDS011;16074;42.708;23.312;2022-08-19T01:41:10;9.67;;;8.97;;
787;SDS011;16074;42.708;23.312;2022-08-19T01:43:39;9.27;;;8.67;;
787;SDS011;16074;42.708;23.312;2022-08-19T01:46:27;10.60;;;9.73;;
787;SDS011;16074;42.708;23.312;2022-08-19T01:48:56;10.83;;;9.93;;
787;SDS011;16074;42.708;23.312;2022-08-19T01:51:24;10.23;;;9.43;;
787;SDS011;16074;42.708;23.312;2022-08-19T01:53:54;10.50;;;9.50;;
787;SDS011;16074;42.708;23.312;2022-08-19T01:56:22;11.30;;;10.43;;
787;SDS011;16074;42.708;23.312;2022-08-19T01:58:52;11.13;;;10.33;;
787;SDS011;16074;42.708;23.312;2022-08-19T02:01:23;11.10;;;10.30;;
787;SDS011;16074;42.708;23.312;2022-08-19T02:03:56;11.70;;;10.70;;
787;SDS011;16074;42.708;23.312;2022-08-19T02:06:25;10.07;;;9.37;;
787;SDS011;16074;42.708;23.312;2022-08-19T02:08:54;12.10;;;11.00;;
787;SDS011;16074;42.708;23.312;2022-08-19T02:11:24;11.07;;;9.90;;
787;SDS011;16074;42.708;23.312;2022-08-19T02:13:53;11.77;;;10.17;;
787;SDS011;16074;42.708;23.312;2022-08-19T02:16:22;12.07;;;11.13;;
787;SDS011;16074;42.708;23.312;2022-08-19T02:18:51;12.50;;;11.50;;
787;SDS011;16074;42.708;23.312;2022-08-19T02:21:19;11.07;;;10.17;;
787;SDS011;16074;42.708;23.312;2022-08-19T02:23:49;11.13;;;10.10;;
787;SDS011;16074;42.708;23.312;2022-08-19T02:26:19;11.87;;;10.97;;
787;SDS011;16074;42.708;23.312;2022-08-19T02:28:47;12.40;;;11.40;;
787;SDS011;16074;42.708;23.312;2022-08-19T02:31:17;12.97;;;11.20;;
787;SDS011;16074;42.708;23.312;2022-08-19T02:33:47;13.30;;;12.30;;
787;SDS011;16074;42.708;23.312;2022-08-19T02:36:16;13.37;;;12.40;;
787;SDS011;16074;42.708;23.312;2022-08-19T02:38:46;14.53;;;13.30;;
787;SDS011;16074;42.708;23.312;2022-08-19T02:41:22;15.00;;;13.70;;
787;SDS011;16074;42.708;23.312;2022-08-19T02:43:53;14.77;;;13.77;;
787;SDS011;16074;42.708;23.312;2022-08-19T02:46:41;15.13;;;13.93;;
787;SDS011;16074;42.708;23.312;2022-08-19T02:49:11;16.00;;;14.70;;
787;SDS011;16074;42.708;23.312;2022-08-19T02:51:43;15.23;;;13.93;;
787;SDS011;16074;42.708;23.312;2022-08-19T02:54:13;14.33;;;13.13;;
787;SDS011;16074;42.708;23.312;2022-08-19T02:56:43;12.43;;;11.53;;
787;SDS011;16074;42.708;23.312;2022-08-19T02:59:12;13.03;;;12.00;;
787;SDS011;16074;42.708;23.312;2022-08-19T03:01:41;12.67;;;11.67;;
787;SDS011;16074;42.708;23.312;2022-08-19T03:04:11;13.80;;;12.60;;
787;SDS011;16074;42.708;23.312;2022-08-19T03:06:42;13.77;;;12.67;;
787;SDS011;16074;42.708;23.312;2022-08-19T03:09:13;14.40;;;12.90;;
787;SDS011;16074;42.708;23.312;2022-08-19T03:11:41;12.73;;;11.73;;
787;SDS011;16074;42.708;23.312;2022-08-19T03:14:11;12.87;;;11.87;;
787;SDS011;16074;42.708;23.312;2022-08-19T03:16:42;12.77;;;11.77;;
787;SDS011;16074;42.708;23.312;2022-08-19T03:19:16;14.07;;;12.90;;
787;SDS011;16074;42.708;23.312;2022-08-19T03:21:45;14.17;;;13.07;;
787;SDS011;16074;42.708;23.312;2022-08-19T03:24:14;13.43;;;12.43;;
787;SDS011;16074;42.708;23.312;2022-08-19T03:26:44;15.10;;;13.80;;
787;SDS011;16074;42.708;23.312;2022-08-19T03:29:15;13.93;;;12.83;;
787;SDS011;16074;42.708;23.312;2022-08-19T03:31:57;15.33;;;14.07;;
787;SDS011;16074;42.708;23.312;2022-08-19T03:34:28;14.40;;;12.90;;
787;SDS011;16074;42.708;23.312;2022-08-19T03:36:59;15.10;;;13.70;;
787;SDS011;16074;42.708;23.312;2022-08-19T03:39:32;14.23;;;13.20;;
787;SDS011;16074;42.708;23.312;2022-08-19T03:42:00;13.83;;;12.67;;
787;SDS011;16074;42.708;23.312;2022-08-19T03:44:50;13.90;;;12.77;;
787;SDS011;16074;42.708;23.312;2022-08-19T03:47:19;14.80;;;13.60;;
787;SDS011;16074;42.708;23.312;2022-08-19T03:49:47;14.30;;;13.03;;
787;SDS011;16074;42.708;23.312;2022-08-19T03:52:15;14.97;;;13.77;;
787;SDS011;16074;42.708;23.312;2022-08-19T03:54:43;14.30;;;13.10;;
787;SDS011;16074;42.708;23.312;2022-08-19T03:57:11;13.33;;;12.23;;
787;SDS011;16074;42.708;23.312;2022-08-19T03:59:39;15.20;;;13.90;;
787;SDS011;16074;42.708;23.312;2022-08-19T04:02:11;15.07;;;13.77;;
787;SDS011;16074;42.708;23.312;2022-08-19T04:04:40;15.00;;;13.70;;
787;SDS011;16074;42.708;23.312;2022-08-19T04:07:10;15.00;;;13.50;;
787;SDS011;16074;42.708;23.312;2022-08-19T04:09:42;14.77;;;13.47;;
787;SDS011;16074;42.708;23.312;2022-08-19T04:12:10;14.67;;;13.00;;
787;SDS011;16074;42.708;23.312;2022-08-19T04:14:38;15.70;;;14.33;;
787;SDS011;16074;42.708;23.312;2022-08-19T04:17:08;14.30;;;12.83;;
787;SDS011;16074;42.708;23.312;2022-08-19T04:19:37;15.33;;;14.13;;
787;SDS011;16074;42.708;23.312;2022-08-19T04:22:05;15.53;;;14.10;;
787;SDS011;16074;42.708;23.312;2022-08-19T04:24:34;15.60;;;14.10;;
787;SDS011;16074;42.708;23.312;2022-08-19T04:27:03;15.10;;;13.90;;
787;SDS011;16074;42.708;23.312;2022-08-19T04:29:32;16.37;;;14.80;;
787;SDS011;16074;42.708;23.312;2022-08-19T04:32:01;15.50;;;14.00;;
787;SDS011;16074;42.708;23.312;2022-08-19T04:34:36;15.70;;;14.50;;
787;SDS011;16074;42.708;23.312;2022-08-19T04:37:26;17.83;;;16.40;;
787;SDS011;16074;42.708;23.312;2022-08-19T04:40:02;16.40;;;15.00;;
787;SDS011;16074;42.708;23.312;2022-08-19T04:42:49;17.60;;;14.80;;
787;SDS011;16074;42.708;23.312;2022-08-19T04:45:17;15.00;;;13.70;;
787;SDS011;16074;42.708;23.312;2022-08-19T04:47:48;17.10;;;15.53;;
787;SDS011;16074;42.708;23.312;2022-08-19T04:50:40;16.77;;;15.03;;
787;SDS011;16074;42.708;23.312;2022-08-19T04:53:10;17.13;;;15.37;;
787;SDS011;16074;42.708;23.312;2022-08-19T04:55:39;17.23;;;15.40;;
787;SDS011;16074;42.708;23.312;2022-08-19T04:58:08;16.97;;;14.67;;
787;SDS011;16074;42.708;23.312;2022-08-19T05:00:37;18.80;;;15.33;;
787;SDS011;16074;42.708;23.312;2022-08-19T05:03:06;17.90;;;14.73;;
787;SDS011;16074;42.708;23.312;2022-08-19T05:05:37;16.97;;;15.27;;
787;SDS011;16074;42.708;23.312;2022-08-19T05:08:12;20.17;;;15.50;;
787;SDS011;16074;42.708;23.312;2022-08-19T05:10:57;17.27;;;14.53;;
787;SDS011;16074;42.708;23.312;2022-08-19T05:13:25;16.80;;;15.27;;
787;SDS011;16074;42.708;23.312;2022-08-19T05:15:54;17.20;;;15.33;;
787;SDS011;16074;42.708;23.312;2022-08-19T05:18:24;16.60;;;15.20;;
787;SDS011;16074;42.708;23.312;2022-08-19T05:21:11;18.07;;;16.30;;
787;SDS011;16074;42.708;23.312;2022-08-19T05:23:59;17.30;;;15.53;;
787;SDS011;16074;42.708;23.312;2022-08-19T05:26:28;17.40;;;15.70;;
787;SDS011;16074;42.708;23.312;2022-08-19T05:28:56;18.53;;;16.80;;
787;SDS011;16074;42.708;23.312;2022-08-19T05:31:25;20.50;;;17.67;;
787;SDS011;16074;42.708;23.312;2022-08-19T05:33:54;19.77;;;17.87;;
787;SDS011;16074;42.708;23.312;2022-08-19T05:36:22;18.33;;;16.83;;
787;SDS011;16074;42.708;23.312;2022-08-19T05:38:50;20.70;;;17.63;;
787;SDS011;16074;42.708;23.312;2022-08-19T05:41:20;19.00;;;17.40;;
787;SDS011;16074;42.708;23.312;2022-08-19T05:43:57;21.63;;;18.10;;
787;SDS011;16074;42.708;23.312;2022-08-19T05:46:25;19.80;;;17.77;;
787;SDS011;16074;42.708;23.312;2022-08-19T05:48:53;20.53;;;18.63;;
787;SDS011;16074;42.708;23.312;2022-08-19T05:51:23;19.87;;;17.73;;
787;SDS011;16074;42.708;23.312;2022-08-19T05:53:54;20.87;;;18.77;;
787;SDS011;16074;42.708;23.312;2022-08-19T05:56:24;19.73;;;17.73;;
787;SDS011;16074;42.708;23.312;2022-08-19T05:58:52;22.70;;;18.80;;
787;SDS011;16074;42.708;23.312;2022-08-19T06:01:24;21.97;;;18.80;;
787;SDS011;16074;42.708;23.312;2022-08-19T06:03:54;21.90;;;20.10;;
787;SDS011;16074;42.708;23.312;2022-08-19T06:06:22;21.57;;;19.43;;
787;SDS011;16074;42.708;23.312;2022-08-19T06:08:50;22.10;;;20.10;;
787;SDS011;16074;42.708;23.312;2022-08-19T06:11:19;17.47;;;15.97;;
787;SDS011;16074;42.708;23.312;2022-08-19T06:13:51;17.70;;;16.30;;
787;SDS011;16074;42.708;23.312;2022-08-19T06:16:26;18.37;;;16.77;;
787;SDS011;16074;42.708;23.312;2022-08-19T06:18:55;15.53;;;14.13;;
787;SDS011;16074;42.708;23.312;2022-08-19T06:21:25;15.70;;;14.40;;
787;SDS011;16074;42.708;23.312;2022-08-19T06:23:57;15.70;;;14.43;;
787;SDS011;16074;42.708;23.312;2022-08-19T06:26:26;15.80;;;14.50;;
787;SDS011;16074;42.708;23.312;2022-08-19T06:28:56;16.30;;;14.80;;
787;SDS011;16074;42.708;23.312;2022-08-19T06:31:25;16.43;;;14.50;;
787;SDS011;16074;42.708;23.312;2022-08-19T06:33:55;18.37;;;16.60;;
787;SDS011;16074;42.708;23.312;2022-08-19T06:36:25;16.13;;;14.73;;
787;SDS011;16074;42.708;23.312;2022-08-19T06:38:58;16.97;;;15.27;;
787;SDS011;16074;42.708;23.312;2022-08-19T06:41:26;18.27;;;16.37;;
787;SDS011;16074;42.708;23.312;2022-08-19T06:43:56;19.33;;;17.40;;
787;SDS011;16074;42.708;23.312;2022-08-19T06:46:25;18.93;;;17.10;;
787;SDS011;16074;42.708;23.312;2022-08-19T06:48:54;18.80;;;17.13;;
787;SDS011;16074;42.708;23.312;2022-08-19T06:51:23;19.37;;;17.57;;
787;SDS011;16074;42.708;23.312;2022-08-19T06:53:57;18.93;;;16.87;;
787;SDS011;16074;42.708;23.312;2022-08-19T06:56:26;21.10;;;19.03;;
787;SDS011;16074;42.708;23.312;2022-08-19T06:59:02;20.13;;;18.03;;
787;SDS011;16074;42.708;23.312;2022-08-19T07:01:34;16.40;;;15.03;;
787;SDS011;16074;42.708;23.312;2022-08-19T07:04:04;17.60;;;16.00;;
787;SDS011;16074;42.708;23.312;2022-08-19T07:06:37;16.90;;;15.40;;
787;SDS011;16074;42.708;23.312;2022-08-19T07:09:11;17.63;;;16.03;;
787;SDS011;16074;42.708;23.312;2022-08-19T07:11:44;18.20;;;16.30;;
787;SDS011;16074;42.708;23.312;2022-08-19T07:14:15;17.43;;;15.97;;
787;SDS011;16074;42.708;23.312;2022-08-19T07:16:46;17.50;;;16.00;;
787;SDS011;16074;42.708;23.312;2022-08-19T07:19:16;16.03;;;14.63;;
787;SDS011;16074;42.708;23.312;2022-08-19T07:21:46;16.67;;;15.23;;
787;SDS011;16074;42.708;23.312;2022-08-19T07:24:16;17.53;;;16.07;;
787;SDS011;16074;42.708;23.312;2022-08-19T07:26:44;17.60;;;15.73;;
787;SDS011;16074;42.708;23.312;2022-08-19T07:29:19;16.33;;;15.03;;
787;SDS011;16074;42.708;23.312;2022-08-19T07:31:51;16.20;;;14.80;;
787;SDS011;16074;42.708;23.312;2022-08-19T07:34:23;16.33;;;14.90;;
787;SDS011;16074;42.708;23.312;2022-08-19T07:36:52;15.50;;;14.00;;
787;SDS011;16074;42.708;23.312;2022-08-19T07:39:22;15.67;;;13.97;;
787;SDS011;16074;42.708;23.312;2022-08-19T07:41:53;19.13;;;15.23;;
787;SDS011;16074;42.708;23.312;2022-08-19T07:44:23;15.87;;;14.30;;
787;SDS011;16074;42.708;23.312;2022-08-19T07:46:52;15.67;;;14.30;;
787;SDS011;16074;42.708;23.312;2022-08-19T07:49:22;17.50;;;15.50;;
787;SDS011;16074;42.708;23.312;2022-08-19T07:51:52;17.37;;;14.30;;
787;SDS011;16074;42.708;23.312;2022-08-19T07:54:22;15.53;;;14.20;;
787;SDS011;16074;42.708;23.312;2022-08-19T07:56:53;14.77;;;13.13;;
787;SDS011;16074;42.708;23.312;2022-08-19T07:59:23;15.93;;;14.10;;
787;SDS011;16074;42.708;23.312;2022-08-19T08:01:52;14.03;;;12.80;;
787;SDS011;16074;42.708;23.312;2022-08-19T08:04:20;13.20;;;12.00;;
787;SDS011;16074;42.708;23.312;2022-08-19T08:07:07;18.93;;;12.20;;
787;SDS011;16074;42.708;23.312;2022-08-19T08:09:57;13.70;;;12.80;;
787;SDS011;16074;42.708;23.312;2022-08-19T08:12:31;13.17;;;11.97;;
787;SDS011;16074;42.708;23.312;2022-08-19T08:15:04;15.17;;;12.53;;
787;SDS011;16074;42.708;23.312;2022-08-19T08:17:38;19.50;;;12.87;;
787;SDS011;16074;42.708;23.312;2022-08-19T08:20:17;12.30;;;11.27;;
787;SDS011;16074;42.708;23.312;2022-08-19T08:22:46;12.93;;;11.87;;
787;SDS011;16074;42.708;23.312;2022-08-19T08:25:33;14.10;;;12.80;;
787;SDS011;16074;42.708;23.312;2022-08-19T08:28:03;12.23;;;11.33;;
787;SDS011;16074;42.708;23.312;2022-08-19T08:30:33;12.53;;;11.67;;
787;SDS011;16074;42.708;23.312;2022-08-19T08:33:03;14.90;;;13.40;;
787;SDS011;16074;42.708;23.312;2022-08-19T08:35:32;13.20;;;12.00;;
787;SDS011;16074;42.708;23.312;2022-08-19T08:38:01;16.80;;;12.10;;
787;SDS011;16074;42.708;23.312;2022-08-19T08:40:33;12.67;;;11.60;;
787;SDS011;16074;42.708;23.312;2022-08-19T08:43:08;12.20;;;11.30;;
787;SDS011;16074;42.708;23.312;2022-08-19T08:45:50;12.50;;;11.33;;
787;SDS011;16074;42.708;23.312;2022-08-19T08:48:24;11.87;;;10.73;;
787;SDS011;16074;42.708;23.312;2022-08-19T08:51:00;12.90;;;11.70;;
787;SDS011;16074;42.708;23.312;2022-08-19T08:53:34;12.57;;;11.33;;
787;SDS011;16074;42.708;23.312;2022-08-19T08:56:08;10.77;;;9.97;;
787;SDS011;16074;42.708;23.312;2022-08-19T08:58:49;11.97;;;10.80;;
787;SDS011;16074;42.708;23.312;2022-08-19T09:01:23;10.60;;;9.70;;
787;SDS011;16074;42.708;23.312;2022-08-19T09:03:56;10.47;;;9.30;;
787;SDS011;16074;42.708;23.312;2022-08-19T09:06:29;10.63;;;9.00;;
787;SDS011;16074;42.708;23.312;2022-08-19T09:09:10;11.03;;;10.13;;
787;SDS011;16074;42.708;23.312;2022-08-19T09:11:47;9.40;;;8.50;;
787;SDS011;16074;42.708;23.312;2022-08-19T09:17:19;7.60;;;7.10;;
787;SDS011;16074;42.708;23.312;2022-08-19T09:19:56;9.30;;;8.50;;
787;SDS011;16074;42.708;23.312;2022-08-19T09:22:27;10.13;;;9.43;;
787;SDS011;16074;42.708;23.312;2022-08-19T09:24:55;9.30;;;8.57;;
787;SDS011;16074;42.708;23.312;2022-08-19T09:27:24;7.87;;;7.37;;
787;SDS011;16074;42.708;23.312;2022-08-19T09:30:09;7.70;;;7.27;;
787;SDS011;16074;42.708;23.312;2022-08-19T09:32:41;7.10;;;6.60;;
787;SDS011;16074;42.708;23.312;2022-08-19T09:35:10;6.90;;;6.50;;
787;SDS011;16074;42.708;23.312;2022-08-19T09:37:39;6.90;;;6.40;;
787;SDS011;16074;42.708;23.312;2022-08-19T09:40:09;7.43;;;6.80;;
787;SDS011;16074;42.708;23.312;2022-08-19T09:42:38;8.10;;;7.50;;
787;SDS011;16074;42.708;23.312;2022-08-19T09:45:18;6.80;;;6.47;;
787;SDS011;16074;42.708;23.312;2022-08-19T09:47:50;6.43;;;6.13;;
787;SDS011;16074;42.708;23.312;2022-08-19T09:50:21;6.73;;;5.93;;
787;SDS011;16074;42.708;23.312;2022-08-19T09:52:51;6.83;;;6.47;;
787;SDS011;16074;42.708;23.312;2022-08-19T09:55:24;7.03;;;6.70;;
787;SDS011;16074;42.708;23.312;2022-08-19T09:57:59;7.30;;;6.80;;
787;SDS011;16074;42.708;23.312;2022-08-19T10:00:28;7.30;;;6.80;;
787;SDS011;16074;42.708;23.312;2022-08-19T10:02:59;7.83;;;7.10;;
787;SDS011;16074;42.708;23.312;2022-08-19T10:05:28;8.30;;;7.80;;
787;SDS011;16074;42.708;23.312;2022-08-19T10:08:15;6.90;;;6.30;;
787;SDS011;16074;42.708;23.312;2022-08-19T10:10:46;8.77;;;7.37;;
787;SDS011;16074;42.708;23.312;2022-08-19T10:13:15;7.90;;;7.40;;
787;SDS011;16074;42.708;23.312;2022-08-19T10:15:45;8.10;;;7.50;;
787;SDS011;16074;42.708;23.312;2022-08-19T10:18:16;7.73;;;7.13;;
787;SDS011;16074;42.708;23.312;2022-08-19T10:20:45;7.93;;;7.43;;
787;SDS011;16074;42.708;23.312;2022-08-19T10:23:18;7.07;;;6.77;;
787;SDS011;16074;42.708;23.312;2022-08-19T10:25:47;7.77;;;7.27;;
787;SDS011;16074;42.708;23.312;2022-08-19T10:28:16;7.03;;;6.60;;
787;SDS011;16074;42.708;23.312;2022-08-19T10:30:45;8.13;;;7.53;;
787;SDS011;16074;42.708;23.312;2022-08-19T10:33:15;7.90;;;7.40;;
787;SDS011;16074;42.708;23.312;2022-08-19T10:36:05;10.23;;;7.80;;
787;SDS011;16074;42.708;23.312;2022-08-19T10:38:36;8.70;;;7.90;;
787;SDS011;16074;42.708;23.312;2022-08-19T10:41:15;8.13;;;7.60;;
787;SDS011;16074;42.708;23.312;2022-08-19T10:43:45;8.50;;;7.90;;
787;SDS011;16074;42.708;23.312;2022-08-19T10:46:14;7.97;;;7.37;;
787;SDS011;16074;42.708;23.312;2022-08-19T10:48:45;7.87;;;7.47;;
787;SDS011;16074;42.708;23.312;2022-08-19T10:51:16;7.53;;;7.03;;
787;SDS011;16074;42.708;23.312;2022-08-19T10:54:12;7.90;;;7.50;;
787;SDS011;16074;42.708;23.312;2022-08-19T10:56:40;8.87;;;8.10;;
787;SDS011;16074;42.708;23.312;2022-08-19T10:59:20;8.47;;;7.97;;
787;SDS011;16074;42.708;23.312;2022-08-19T11:01:52;9.23;;;8.53;;
787;SDS011;16074;42.708;23.312;2022-08-19T11:04:24;8.93;;;8.33;;
787;SDS011;16074;42.708;23.312;2022-08-19T11:06:55;8.77;;;7.80;;
787;SDS011;16074;42.708;23.312;2022-08-19T11:09:24;8.20;;;7.70;;
787;SDS011;16074;42.708;23.312;2022-08-19T11:11:59;8.57;;;7.87;;
787;SDS011;16074;42.708;23.312;2022-08-19T11:14:30;7.70;;;7.20;;
787;SDS011;16074;42.708;23.312;2022-08-19T11:17:00;7.87;;;7.47;;
787;SDS011;16074;42.708;23.312;2022-08-19T11:19:30;9.83;;;9.23;;
787;SDS011;16074;42.708;23.312;2022-08-19T11:21:58;8.90;;;8.40;;
787;SDS011;16074;42.708;23.312;2022-08-19T11:24:29;8.57;;;7.97;;
787;SDS011;16074;42.708;23.312;2022-08-19T11:27:03;9.73;;;9.03;;
787;SDS011;16074;42.708;23.312;2022-08-19T11:29:33;8.77;;;8.17;;
787;SDS011;16074;42.708;23.312;2022-08-19T11:32:03;7.80;;;7.30;;
787;SDS011;16074;42.708;23.312;2022-08-19T11:34:34;8.70;;;8.20;;
787;SDS011;16074;42.708;23.312;2022-08-19T11:37:03;9.67;;;9.07;;
787;SDS011;16074;42.708;23.312;2022-08-19T11:39:32;13.03;;;11.87;;
787;SDS011;16074;42.708;23.312;2022-08-19T11:42:02;8.77;;;8.20;;
787;SDS011;16074;42.708;23.312;2022-08-19T11:44:52;7.90;;;7.40;;
787;SDS011;16074;42.708;23.312;2022-08-19T11:47:21;8.20;;;7.70;;
787;SDS011;16074;42.708;23.312;2022-08-19T11:49:51;8.10;;;7.40;;
787;SDS011;16074;42.708;23.312;2022-08-19T11:52:19;8.07;;;7.57;;
787;SDS011;16074;42.708;23.312;2022-08-19T11:54:48;8.60;;;7.90;;
787;SDS011;16074;42.708;23.312;2022-08-19T11:57:16;8.80;;;8.23;;
787;SDS011;16074;42.708;23.312;2022-08-19T11:59:49;8.60;;;8.10;;
787;SDS011;16074;42.708;23.312;2022-08-19T12:02:19;8.00;;;7.60;;
787;SDS011;16074;42.708;23.312;2022-08-19T12:04:48;8.37;;;7.87;;
787;SDS011;16074;42.708;23.312;2022-08-19T12:07:17;7.23;;;6.83;;
787;SDS011;16074;42.708;23.312;2022-08-19T12:09:46;7.93;;;7.23;;
787;SDS011;16074;42.708;23.312;2022-08-19T12:12:14;8.07;;;7.57;;
787;SDS011;16074;42.708;23.312;2022-08-19T12:14:42;11.63;;;8.00;;
787;SDS011;16074;42.708;23.312;2022-08-19T12:17:11;8.40;;;7.87;;
787;SDS011;16074;42.708;23.312;2022-08-19T12:19:39;7.57;;;7.10;;
787;SDS011;16074;42.708;23.312;2022-08-19T12:22:08;8.33;;;7.80;;
787;SDS011;16074;42.708;23.312;2022-08-19T12:24:37;8.07;;;7.57;;
787;SDS011;16074;42.708;23.312;2022-08-19T12:27:05;9.27;;;8.57;;
787;SDS011;16074;42.708;23.312;2022-08-19T12:29:38;8.57;;;7.93;;
787;SDS011;16074;42.708;23.312;2022-08-19T12:32:08;7.63;;;7.23;;
787;SDS011;16074;42.708;23.312;2022-08-19T12:34:38;9.57;;;8.97;;
787;SDS011;16074;42.708;23.312;2022-08-19T12:37:06;8.23;;;7.73;;
787;SDS011;16074;42.708;23.312;2022-08-19T12:39:36;12.50;;;7.70;;
787;SDS011;16074;42.708;23.312;2022-08-19T12:42:08;8.80;;;8.20;;
787;SDS011;16074;42.708;23.312;2022-08-19T12:44:36;7.60;;;7.10;;
787;SDS011;16074;42.708;23.312;2022-08-19T12:47:09;8.93;;;8.23;;
787;SDS011;16074;42.708;23.312;2022-08-19T12:49:39;8.47;;;7.77;;
787;SDS011;16074;42.708;23.312;2022-08-19T12:52:21;7.97;;;7.47;;
787;SDS011;16074;42.708;23.312;2022-08-19T12:54:53;7.83;;;7.40;;
787;SDS011;16074;42.708;23.312;2022-08-19T12:57:22;8.27;;;7.60;;
787;SDS011;16074;42.708;23.312;2022-08-19T12:59:59;8.40;;;7.90;;
787;SDS011;16074;42.708;23.312;2022-08-19T13:02:33;8.70;;;8.00;;
787;SDS011;16074;42.708;23.312;2022-08-19T13:05:06;9.07;;;8.00;;
787;SDS011;16074;42.708;23.312;2022-08-19T13:07:36;8.60;;;8.00;;
787;SDS011;16074;42.708;23.312;2022-08-19T13:10:07;8.93;;;8.23;;
787;SDS011;16074;42.708;23.312;2022-08-19T13:12:37;7.90;;;7.57;;
787;SDS011;16074;42.708;23.312;2022-08-19T13:15:07;7.90;;;7.30;;
787;SDS011;16074;42.708;23.312;2022-08-19T13:17:37;7.70;;;7.00;;
787;SDS011;16074;42.708;23.312;2022-08-19T13:20:07;9.60;;;7.43;;
787;SDS011;16074;42.708;23.312;2022-08-19T13:22:37;9.30;;;8.47;;
787;SDS011;16074;42.708;23.312;2022-08-19T13:25:08;8.70;;;8.10;;
787;SDS011;16074;42.708;23.312;2022-08-19T13:27:36;8.30;;;7.67;;
787;SDS011;16074;42.708;23.312;2022-08-19T13:30:06;9.00;;;8.30;;
787;SDS011;16074;42.708;23.312;2022-08-19T13:32:54;9.33;;;8.73;;
787;SDS011;16074;42.708;23.312;2022-08-19T13:35:43;8.47;;;7.97;;
787;SDS011;16074;42.708;23.312;2022-08-19T13:38:15;8.40;;;7.90;;
787;SDS011;16074;42.708;23.312;2022-08-19T13:40:46;8.47;;;7.87;;
787;SDS011;16074;42.708;23.312;2022-08-19T13:43:17;8.17;;;7.67;;
787;SDS011;16074;42.708;23.312;2022-08-19T13:45:49;8.07;;;7.67;;
787;SDS011;16074;42.708;23.312;2022-08-19T13:48:20;9.17;;;8.47;;
787;SDS011;16074;42.708;23.312;2022-08-19T13:50:48;8.27;;;7.77;;
787;SDS011;16074;42.708;23.312;2022-08-19T13:53:17;9.47;;;8.77;;
787;SDS011;16074;42.708;23.312;2022-08-19T13:55:47;8.97;;;8.37;;
787;SDS011;16074;42.708;23.312;2022-08-19T13:58:17;9.93;;;9.23;;
787;SDS011;16074;42.708;23.312;2022-08-19T14:00:45;7.93;;;7.23;;
787;SDS011;16074;42.708;23.312;2022-08-19T14:03:14;8.60;;;8.00;;
787;SDS011;16074;42.708;23.312;2022-08-19T14:05:43;8.63;;;8.13;;
787;SDS011;16074;42.708;23.312;2022-08-19T14:08:13;9.33;;;8.63;;
787;SDS011;16074;42.708;23.312;2022-08-19T14:10:41;9.87;;;9.00;;
787;SDS011;16074;42.708;23.312;2022-08-19T14:13:14;8.23;;;7.70;;
787;SDS011;16074;42.708;23.312;2022-08-19T14:15:43;9.47;;;8.90;;
787;SDS011;16074;42.708;23.312;2022-08-19T14:18:12;8.77;;;8.00;;
787;SDS011;16074;42.708;23.312;2022-08-19T14:20:41;8.93;;;8.33;;
787;SDS011;16074;42.708;23.312;2022-08-19T14:23:09;9.23;;;8.53;;
787;SDS011;16074;42.708;23.312;2022-08-19T14:25:38;8.47;;;7.97;;
787;SDS011;16074;42.708;23.312;2022-08-19T14:28:07;8.20;;;7.80;;
787;SDS011;16074;42.708;23.312;2022-08-19T14:30:36;8.80;;;8.13;;
787;SDS011;16074;42.708;23.312;2022-08-19T14:33:06;9.77;;;8.97;;
787;SDS011;16074;42.708;23.312;2022-08-19T14:35:35;9.00;;;8.53;;
787;SDS011;16074;42.708;23.312;2022-08-19T14:38:04;9.07;;;8.57;;
787;SDS011;16074;42.708;23.312;2022-08-19T14:40:33;9.07;;;8.57;;
787;SDS011;16074;42.708;23.312;2022-08-19T14:43:02;8.70;;;8.00;;
787;SDS011;16074;42.708;23.312;2022-08-19T14:45:31;10.07;;;8.70;;
787;SDS011;16074;42.708;23.312;2022-08-19T14:48:04;8.53;;;7.87;;
787;SDS011;16074;42.708;23.312;2022-08-19T14:50:38;8.30;;;7.80;;
787;SDS011;16074;42.708;23.312;2022-08-19T14:53:07;8.87;;;8.27;;
787;SDS011;16074;42.708;23.312;2022-08-19T14:55:40;8.43;;;8.00;;
787;SDS011;16074;42.708;23.312;2022-08-19T14:58:09;9.00;;;8.50;;
787;SDS011;16074;42.708;23.312;2022-08-19T15:00:56;8.67;;;8.10;;
787;SDS011;16074;42.708;23.312;2022-08-19T15:03:26;9.30;;;8.50;;
787;SDS011;16074;42.708;23.312;2022-08-19T15:05:55;11.43;;;10.50;;
787;SDS011;16074;42.708;23.312;2022-08-19T15:08:25;9.53;;;8.97;;
787;SDS011;16074;42.708;23.312;2022-08-19T15:10:55;9.20;;;8.60;;
787;SDS011;16074;42.708;23.312;2022-08-19T15:13:24;10.77;;;9.77;;
787;SDS011;16074;42.708;23.312;2022-08-19T15:15:53;9.53;;;8.87;;
787;SDS011;16074;42.708;23.312;2022-08-19T15:18:22;9.13;;;8.53;;
787;SDS011;16074;42.708;23.312;2022-08-19T15:20:52;10.07;;;9.37;;